KPVD/PVD METAR and TAF weather

Enter ICAO airport designator
Station Type Date Time Source
KPVD METAR 2019/09/21 20:51 UTC NOAA

KPVD 212051Z 17008KT 10SM CLR 26/13 A3016 RMK AO2 SLP212 T02560128 55004


Station Type Date Time Source
KPVD Decoded METAR 2019/09/21 20:51 UTC NOAA

PROVIDENCE GREEN STATE AIRPORT , RI, United States (KPVD) 41-44N 071-26W 16M
Sep 21, 2019 - 04:51 PM EDT / 2019.09.21 2051 UTC
Wind: from the S (170 degrees) at 9 MPH (8 KT):0
Visibility: 10 mile(s):0
Sky conditions: clear
Temperature: 78.1 F (25.6 C)
Dew Point: 55.0 F (12.8 C)
Relative Humidity: 45%
Pressure (altimeter): 30.16 in. Hg (1021 hPa)
Pressure tendency: 0.01 inches (0.4 hPa) lower than three hours ago
ob: KPVD 212051Z 17008KT 10SM CLR 26/13 A3016 RMK AO2 SLP212 T02560128 55004
cycle: 21

Station Type Date Time Source
KPVD TAF 2019/09/21 20:04 UTC NOAA

TAF
AMD KPVD 212002Z 2120/2218 16008KT P6SM SKC
FM220200 20004KT P6SM SKC

Example: see airport list